createdAt,value
2023-02-13T00:00:21.537Z,23.80
2023-02-13T00:02:48.158Z,21.77
2023-02-13T00:05:14.937Z,24.55
2023-02-13T00:07:41.465Z,25.20
2023-02-13T00:10:08.673Z,23.23
2023-02-13T00:12:35.551Z,21.52
2023-02-13T00:15:02.719Z,21.25
2023-02-13T00:17:29.554Z,24.52
2023-02-13T00:19:56.051Z,20.43
2023-02-13T00:22:22.612Z,22.27
2023-02-13T00:24:49.050Z,28.65
2023-02-13T00:27:15.571Z,20.77
2023-02-13T00:29:42.047Z,24.52
2023-02-13T00:32:09.273Z,20.87
2023-02-13T00:34:36.552Z,22.48
2023-02-13T00:37:03.159Z,23.13
2023-02-13T00:39:29.662Z,20.85
2023-02-13T00:41:56.118Z,24.88
2023-02-13T00:44:22.557Z,20.87
2023-02-13T00:46:49.114Z,25.33
2023-02-13T00:49:15.606Z,21.13
2023-02-13T00:51:42.067Z,20.67
2023-02-13T00:54:08.619Z,21.50
2023-02-13T00:56:35.146Z,22.63
2023-02-13T00:59:01.789Z,22.55
2023-02-13T01:01:28.516Z,21.00
2023-02-13T01:03:55.156Z,22.27
2023-02-13T01:06:21.663Z,20.98
2023-02-13T01:08:48.108Z,22.80
2023-02-13T01:11:14.576Z,21.83
2023-02-13T01:13:41.144Z,18.55
2023-02-13T01:16:07.777Z,21.80
2023-02-13T01:18:34.326Z,22.00
2023-02-13T01:21:06.684Z,18.23
2023-02-13T01:23:35.722Z,20.05
2023-02-13T01:26:05.607Z,20.52
2023-02-13T01:28:32.158Z,20.30
2023-02-13T01:30:59.237Z,20.42
2023-02-13T01:33:27.798Z,20.00
2023-02-13T01:35:54.616Z,20.70
2023-02-13T01:38:21.460Z,24.38
2023-02-13T01:40:53.356Z,20.77
2023-02-13T01:43:23.541Z,21.30
2023-02-13T01:45:56.333Z,18.60
2023-02-13T01:48:25.953Z,24.60
2023-02-13T01:50:59.402Z,22.55
2023-02-13T01:53:31.491Z,22.58
2023-02-13T01:56:08.259Z,22.70
2023-02-13T01:58:39.553Z,21.73
2023-02-13T02:01:06.809Z,20.30
2023-02-13T02:03:39.909Z,19.92
2023-02-13T02:06:11.055Z,21.38
2023-02-13T02:08:39.041Z,21.05
2023-02-13T02:11:30.648Z,20.53
2023-02-13T02:13:58.570Z,20.88
2023-02-13T02:16:25.914Z,19.17
2023-02-13T02:18:52.632Z,17.85
2023-02-13T02:21:31.216Z,21.70
2023-02-13T02:24:22.064Z,21.23
2023-02-13T02:27:13.352Z,22.92
2023-02-13T02:29:59.833Z,19.60
2023-02-13T02:32:58.678Z,23.50
2023-02-13T02:35:40.836Z,21.70
2023-02-13T02:38:26.130Z,23.07
2023-02-13T02:41:04.956Z,20.95
2023-02-13T02:43:52.232Z,20.90
2023-02-13T02:46:38.249Z,20.92
2023-02-13T02:49:29.098Z,18.63
2023-02-13T02:52:04.797Z,20.20
2023-02-13T02:54:53.357Z,17.75
2023-02-13T02:57:47.544Z,20.33
2023-02-13T03:00:38.001Z,22.05
2023-02-13T03:03:28.245Z,20.88
2023-02-13T03:06:10.637Z,19.47
2023-02-13T03:08:57.274Z,22.00
2023-02-13T03:11:42.056Z,19.73
2023-02-13T03:14:12.502Z,17.52
2023-02-13T03:16:57.949Z,22.30
2023-02-13T03:20:16.568Z,19.63
2023-02-13T03:22:50.466Z,19.60
2023-02-13T03:25:37.381Z,19.10
2023-02-13T03:28:36.246Z,19.25
2023-02-13T03:31:38.050Z,20.25
2023-02-13T03:34:15.536Z,19.93
2023-02-13T03:37:03.661Z,20.35
2023-02-13T03:39:57.787Z,21.25
2023-02-13T03:42:32.949Z,22.45
2023-02-13T03:45:22.921Z,25.25
2023-02-13T03:47:53.233Z,20.40
2023-02-13T03:50:20.026Z,19.00
2023-02-13T03:52:54.386Z,22.77
2023-02-13T03:55:42.248Z,20.08
2023-02-13T03:58:35.099Z,20.33
2023-02-13T04:01:05.145Z,20.50
2023-02-13T04:03:34.091Z,21.50
2023-02-13T04:06:12.285Z,25.13
2023-02-13T04:08:38.914Z,22.48
2023-02-13T04:11:15.063Z,23.50
2023-02-13T04:13:51.454Z,19.17
2023-02-13T04:16:23.501Z,20.08
2023-02-13T04:18:52.553Z,19.05
2023-02-13T04:21:19.068Z,19.42
2023-02-13T04:23:45.612Z,18.02
2023-02-13T04:26:19.580Z,25.00
2023-02-13T04:28:46.386Z,20.15
2023-02-13T04:31:13.088Z,20.13
2023-02-13T04:33:39.855Z,21.48
2023-02-13T04:36:06.819Z,21.10
2023-02-13T04:38:33.408Z,22.67
2023-02-13T04:40:59.996Z,23.23
2023-02-13T04:43:26.596Z,20.50
2023-02-13T04:45:53.172Z,23.02
2023-02-13T04:48:19.662Z,21.30
2023-02-13T04:50:46.184Z,21.10
2023-02-13T04:53:12.639Z,22.38
2023-02-13T04:55:39.104Z,23.45
2023-02-13T04:58:05.630Z,22.58
2023-02-13T05:00:32.154Z,20.60
2023-02-13T05:03:09.208Z,21.33
2023-02-13T05:05:36.053Z,22.30
2023-02-13T05:08:02.829Z,20.60
2023-02-13T05:10:29.809Z,21.42
2023-02-13T05:12:56.414Z,23.80
2023-02-13T05:15:23.611Z,21.63
2023-02-13T05:17:50.105Z,18.95
2023-02-13T05:20:16.821Z,23.00
2023-02-13T05:23:05.466Z,25.40
2023-02-13T05:25:33.205Z,22.48
2023-02-13T05:27:59.676Z,22.23
2023-02-13T05:30:26.238Z,23.60
2023-02-13T05:32:53.067Z,18.98
2023-02-13T05:35:19.568Z,21.55
2023-02-13T05:37:46.035Z,24.00
2023-02-13T05:40:13.569Z,21.97
2023-02-13T05:42:43.295Z,22.83
2023-02-13T05:45:10.677Z,24.15
2023-02-13T05:47:37.252Z,22.55
2023-02-13T05:50:03.905Z,20.88
2023-02-13T05:52:30.354Z,19.23
2023-02-13T05:54:56.813Z,22.42
2023-02-13T05:57:23.310Z,21.15
2023-02-13T05:59:49.759Z,26.15
2023-02-13T06:02:16.248Z,23.98
2023-02-13T06:04:42.748Z,23.03
2023-02-13T06:07:09.228Z,24.85
2023-02-13T06:09:35.859Z,25.77
2023-02-13T06:12:02.358Z,24.63
2023-02-13T06:14:28.850Z,28.08
2023-02-13T06:16:55.371Z,24.77
2023-02-13T06:19:21.922Z,22.77
2023-02-13T06:21:48.392Z,22.08
2023-02-13T06:24:14.951Z,24.70
2023-02-13T06:26:41.454Z,21.80
2023-02-13T06:29:09.286Z,25.13
2023-02-13T06:31:35.871Z,21.98
2023-02-13T06:34:02.683Z,23.48
2023-02-13T06:36:29.155Z,24.13
2023-02-13T06:38:55.652Z,25.33
2023-02-13T06:41:22.407Z,25.20
2023-02-13T06:43:48.904Z,23.80
2023-02-13T06:46:15.389Z,23.20
2023-02-13T06:48:41.863Z,25.27
2023-02-13T06:51:08.383Z,26.65
2023-02-13T06:53:34.904Z,24.80
2023-02-13T06:56:06.290Z,21.88
2023-02-13T06:58:34.006Z,20.90
2023-02-13T07:01:00.863Z,25.17
2023-02-13T07:03:27.579Z,23.67
2023-02-13T07:05:54.062Z,23.00
2023-02-13T07:08:20.599Z,25.30
2023-02-13T07:10:47.151Z,25.75
2023-02-13T07:13:13.841Z,26.67
2023-02-13T07:15:40.520Z,24.20
2023-02-13T07:18:07.334Z,28.50
2023-02-13T07:20:34.264Z,25.40
2023-02-13T07:23:02.769Z,24.10
2023-02-13T07:25:29.682Z,23.67
2023-02-13T07:28:01.356Z,27.95
2023-02-13T07:30:28.099Z,25.13
2023-02-13T07:32:58.834Z,26.85
2023-02-13T07:35:25.382Z,28.55
2023-02-13T07:37:53.544Z,28.13
2023-02-13T07:40:20.176Z,30.98
2023-02-13T07:42:46.724Z,26.83
2023-02-13T07:45:15.404Z,27.42
2023-02-13T07:47:42.644Z,30.65
2023-02-13T07:50:10.068Z,25.55
2023-02-13T07:52:38.007Z,29.55
2023-02-13T07:55:05.492Z,27.57
2023-02-13T07:57:32.016Z,27.35
2023-02-13T07:59:58.486Z,29.80
2023-02-13T08:02:24.992Z,30.63
2023-02-13T08:04:51.458Z,29.15
2023-02-13T08:07:18.516Z,31.20
2023-02-13T08:10:04.580Z,25.13
2023-02-13T08:12:32.627Z,29.30
2023-02-13T08:14:59.131Z,28.80
2023-02-13T08:17:25.672Z,29.92
2023-02-13T08:19:52.180Z,28.80
2023-02-13T08:22:18.669Z,27.75
2023-02-13T08:24:45.203Z,28.52
2023-02-13T08:27:13.956Z,24.83
2023-02-13T08:29:40.650Z,29.88
2023-02-13T08:32:07.528Z,27.03
2023-02-13T08:34:34.085Z,28.92
2023-02-13T08:37:01.867Z,25.85
2023-02-13T08:39:28.318Z,29.33
2023-02-13T08:41:54.811Z,30.33
2023-02-13T08:44:21.276Z,26.60
2023-02-13T08:46:47.710Z,29.58
2023-02-13T08:49:14.227Z,27.70
2023-02-13T08:51:40.803Z,25.15
2023-02-13T08:54:07.270Z,29.40
2023-02-13T08:56:33.824Z,26.87
2023-02-13T08:59:00.478Z,25.67
2023-02-13T09:01:27.123Z,26.15
2023-02-13T09:03:55.808Z,25.05
2023-02-13T09:06:29.702Z,22.85
2023-02-13T09:09:00.298Z,24.67
2023-02-13T09:11:27.241Z,21.58
2023-02-13T09:13:54.339Z,23.55
2023-02-13T09:16:21.440Z,22.75
2023-02-13T09:18:49.633Z,24.38
2023-02-13T09:21:17.701Z,24.50
2023-02-13T09:23:44.804Z,25.95
2023-02-13T09:26:13.706Z,22.98
2023-02-13T09:28:41.133Z,24.05
2023-02-13T09:31:12.876Z,25.40
2023-02-13T09:33:39.488Z,23.03
2023-02-13T09:36:08.182Z,24.15
2023-02-13T09:38:35.110Z,22.08
2023-02-13T09:41:10.209Z,22.17
2023-02-13T09:43:44.859Z,23.08
2023-02-13T09:46:19.095Z,24.80
2023-02-13T09:48:49.961Z,19.73
2023-02-13T09:51:19.311Z,19.42
2023-02-13T09:54:00.255Z,21.30
2023-02-13T09:56:38.965Z,23.88
2023-02-13T09:59:47.002Z,20.13
2023-02-13T10:02:43.964Z,22.70
2023-02-13T10:05:31.723Z,19.95
2023-02-13T10:07:58.156Z,21.58
2023-02-13T10:10:37.587Z,20.05
2023-02-13T10:13:46.709Z,19.50
2023-02-13T10:16:19.445Z,25.00
2023-02-13T10:19:13.413Z,21.42
2023-02-13T10:21:50.907Z,21.70
2023-02-13T10:24:33.983Z,21.00
2023-02-13T10:27:11.017Z,24.40
2023-02-13T10:30:06.250Z,22.90
2023-02-13T10:32:38.141Z,19.58
2023-02-13T10:35:18.070Z,19.65
2023-02-13T10:37:50.878Z,22.77
2023-02-13T10:40:19.112Z,23.50
2023-02-13T10:42:54.160Z,20.90
2023-02-13T10:45:58.276Z,20.23
2023-02-13T10:48:33.859Z,21.55
2023-02-13T10:51:18.142Z,20.17
2023-02-13T10:54:21.977Z,20.50
2023-02-13T10:57:06.904Z,20.98
2023-02-13T10:59:44.843Z,20.20
2023-02-13T11:02:22.767Z,21.63
2023-02-13T11:04:52.344Z,23.60
2023-02-13T11:07:21.860Z,22.17
2023-02-13T11:09:50.933Z,23.35
2023-02-13T11:12:29.775Z,22.52
2023-02-13T11:15:01.555Z,21.92
2023-02-13T11:17:46.943Z,22.08
2023-02-13T11:20:33.548Z,21.27
2023-02-13T11:23:31.142Z,21.05
2023-02-13T11:26:11.953Z,18.55
2023-02-13T11:28:55.417Z,21.42
2023-02-13T11:31:24.573Z,20.83
2023-02-13T11:33:51.584Z,20.27
2023-02-13T11:36:38.341Z,20.17
2023-02-13T11:39:17.422Z,22.40
2023-02-13T11:41:46.721Z,19.85
2023-02-13T11:44:28.430Z,19.60
2023-02-13T11:46:57.832Z,20.87
2023-02-13T11:49:50.820Z,20.00
2023-02-13T11:52:25.078Z,20.15
2023-02-13T11:55:24.675Z,20.30
2023-02-13T11:58:10.398Z,19.10
2023-02-13T12:00:40.406Z,18.47
2023-02-13T12:03:22.068Z,19.17
2023-02-13T12:06:18.546Z,20.45
2023-02-13T12:08:48.379Z,22.15
2023-02-13T12:11:23.667Z,18.48
2023-02-13T12:13:51.989Z,19.30
2023-02-13T12:16:30.992Z,19.70
2023-02-13T12:19:03.599Z,17.58
2023-02-13T12:21:56.847Z,20.42
2023-02-13T12:24:52.676Z,19.42
2023-02-13T12:27:24.841Z,19.30
2023-02-13T12:30:00.304Z,17.83
2023-02-13T12:32:42.085Z,19.42
2023-02-13T12:35:30.488Z,18.65
2023-02-13T12:38:04.095Z,20.05
2023-02-13T12:40:30.465Z,20.70
2023-02-13T12:43:15.288Z,17.92
2023-02-13T12:46:05.656Z,19.73
2023-02-13T12:48:54.095Z,20.90
2023-02-13T12:51:40.567Z,18.80
2023-02-13T12:54:50.612Z,19.23
2023-02-13T12:57:27.701Z,18.80
2023-02-13T13:00:35.202Z,17.70
2023-02-13T13:03:35.548Z,16.67
2023-02-13T13:06:37.680Z,17.15
2023-02-13T13:09:31.708Z,16.83
2023-02-13T13:12:19.668Z,16.50
2023-02-13T13:15:06.527Z,17.98
2023-02-13T13:18:21.271Z,18.25
2023-02-13T13:20:56.805Z,18.73
2023-02-13T13:23:32.110Z,17.90
2023-02-13T13:26:13.669Z,16.83
2023-02-13T13:28:47.278Z,18.88
2023-02-13T13:31:14.178Z,18.42
2023-02-13T13:33:43.796Z,18.23
2023-02-13T13:36:32.203Z,17.17
2023-02-13T13:39:17.463Z,16.73
2023-02-13T13:41:54.903Z,17.75
2023-02-13T13:44:42.478Z,17.25
2023-02-13T13:47:30.780Z,16.73
2023-02-13T13:50:01.906Z,16.07
2023-02-13T13:52:33.032Z,16.58
2023-02-13T13:55:02.483Z,15.65
2023-02-13T13:57:41.270Z,16.40
2023-02-13T14:00:13.506Z,15.77
2023-02-13T14:02:42.713Z,22.73
2023-02-13T14:05:21.381Z,18.25
2023-02-13T14:07:54.413Z,16.08
2023-02-13T14:10:20.870Z,18.00
2023-02-13T14:12:59.786Z,19.80
2023-02-13T14:15:29.269Z,17.33
2023-02-13T14:17:56.204Z,19.00
2023-02-13T14:20:56.816Z,19.95
2023-02-13T14:23:37.638Z,18.52
2023-02-13T14:26:16.242Z,14.73
2023-02-13T14:28:48.806Z,14.43
2023-02-13T14:31:23.416Z,15.48
2023-02-13T14:34:01.859Z,16.48
2023-02-13T14:36:33.348Z,15.30
2023-02-13T14:39:25.854Z,17.45
2023-02-13T14:41:55.172Z,16.83
2023-02-13T14:44:46.569Z,15.32
2023-02-13T14:47:30.328Z,16.40
2023-02-13T14:49:59.379Z,15.20
2023-02-13T14:52:32.769Z,15.40
2023-02-13T14:55:04.292Z,16.40
2023-02-13T14:57:58.097Z,18.50
2023-02-13T15:00:43.267Z,16.83
2023-02-13T15:03:37.087Z,16.17
2023-02-13T15:06:12.506Z,15.20
2023-02-13T15:08:47.109Z,17.67
2023-02-13T15:11:35.822Z,18.95
2023-02-13T15:14:30.237Z,15.27
2023-02-13T15:17:06.325Z,16.50
2023-02-13T15:19:36.964Z,17.33
2023-02-13T15:22:05.617Z,18.97
2023-02-13T15:24:46.204Z,16.27
2023-02-13T15:27:19.763Z,17.35
2023-02-13T15:30:04.214Z,15.23
2023-02-13T15:32:39.520Z,17.23
2023-02-13T15:35:31.016Z,14.30
2023-02-13T15:37:58.541Z,13.18
2023-02-13T15:40:30.551Z,14.15
2023-02-13T15:42:57.997Z,14.80
2023-02-13T15:45:27.539Z,20.67
2023-02-13T15:47:56.270Z,17.47
2023-02-13T15:50:30.834Z,16.83
2023-02-13T15:52:59.683Z,15.73
2023-02-13T15:55:30.412Z,15.18
2023-02-13T15:58:00.317Z,17.45
2023-02-13T16:00:41.031Z,17.40
2023-02-13T16:03:15.308Z,16.15
2023-02-13T16:05:41.943Z,16.83
2023-02-13T16:08:28.455Z,16.85
2023-02-13T16:11:16.234Z,15.60
2023-02-13T16:13:56.067Z,15.13
2023-02-13T16:16:24.101Z,17.40
2023-02-13T16:18:51.420Z,17.65
2023-02-13T16:21:26.413Z,19.25
2023-02-13T16:24:01.465Z,17.17
2023-02-13T16:26:28.130Z,16.60
2023-02-13T16:28:55.802Z,15.52
2023-02-13T16:31:22.762Z,17.65
2023-02-13T16:33:49.509Z,20.88
2023-02-13T16:36:15.954Z,20.42
2023-02-13T16:38:47.296Z,18.63
2023-02-13T16:41:19.656Z,17.38
2023-02-13T16:43:55.370Z,17.90
2023-02-13T16:46:27.968Z,17.58
2023-02-13T16:48:57.441Z,18.60
2023-02-13T16:51:30.146Z,18.20
2023-02-13T16:54:02.054Z,16.67
2023-02-13T16:56:36.311Z,17.38
2023-02-13T16:59:18.840Z,19.15
2023-02-13T17:01:45.374Z,20.27
2023-02-13T17:04:21.364Z,20.60
2023-02-13T17:06:47.984Z,17.58
2023-02-13T17:09:14.519Z,18.98
2023-02-13T17:11:41.065Z,18.95
2023-02-13T17:14:07.700Z,19.15
2023-02-13T17:16:34.452Z,21.30
2023-02-13T17:19:01.023Z,17.27
2023-02-13T17:21:27.556Z,15.77
2023-02-13T17:23:54.051Z,18.85
2023-02-13T17:26:20.589Z,18.42
2023-02-13T17:28:47.077Z,19.00
2023-02-13T17:31:14.217Z,19.85
2023-02-13T17:33:41.169Z,19.23
2023-02-13T17:36:09.628Z,17.25
2023-02-13T17:38:36.119Z,17.30
2023-02-13T17:41:02.629Z,18.87
2023-02-13T17:43:30.061Z,18.33
2023-02-13T17:45:57.160Z,15.63
2023-02-13T17:48:24.472Z,17.20
2023-02-13T17:50:51.357Z,17.83
2023-02-13T17:53:24.744Z,16.37
2023-02-13T17:55:51.784Z,16.63
2023-02-13T17:58:18.503Z,19.85
2023-02-13T18:00:44.954Z,14.63
2023-02-13T18:03:12.590Z,15.20
2023-02-13T18:05:40.211Z,17.03
2023-02-13T18:08:06.871Z,14.82
2023-02-13T18:10:35.522Z,16.60
2023-02-13T18:13:06.184Z,15.45
2023-02-13T18:15:41.948Z,17.70
2023-02-13T18:18:08.768Z,17.47
2023-02-13T18:20:35.526Z,16.15
2023-02-13T18:23:02.066Z,14.68
2023-02-13T18:25:29.329Z,19.20
2023-02-13T18:27:55.919Z,17.73
2023-02-13T18:30:22.543Z,19.87
2023-02-13T18:32:54.759Z,17.30
2023-02-13T18:35:23.010Z,19.95
2023-02-13T18:37:49.745Z,20.90
2023-02-13T18:40:17.594Z,21.88
2023-02-13T18:42:44.348Z,21.07
2023-02-13T18:45:12.122Z,20.25
2023-02-13T18:47:38.644Z,18.10
2023-02-13T18:50:05.697Z,17.88
2023-02-13T18:52:32.213Z,19.50
2023-02-13T18:54:58.712Z,19.00
2023-02-13T18:57:25.248Z,17.35
2023-02-13T18:59:51.750Z,18.65
2023-02-13T19:02:18.307Z,24.33
2023-02-13T19:04:44.825Z,25.00
2023-02-13T19:07:11.395Z,23.13
2023-02-13T19:09:40.328Z,21.70
2023-02-13T19:12:08.187Z,17.75
2023-02-13T19:14:35.028Z,18.17
2023-02-13T19:17:01.583Z,14.55
2023-02-13T19:19:28.169Z,16.60
2023-02-13T19:21:54.736Z,14.60
2023-02-13T19:24:21.318Z,17.52
2023-02-13T19:26:47.806Z,14.02
2023-02-13T19:29:14.281Z,16.30
2023-02-13T19:31:41.528Z,16.23
2023-02-13T19:34:08.283Z,17.05
2023-02-13T19:36:34.921Z,17.58
2023-02-13T19:39:03.985Z,19.45
2023-02-13T19:41:30.848Z,18.35
2023-02-13T19:43:57.501Z,19.80
2023-02-13T19:46:27.005Z,18.00
2023-02-13T19:48:54.200Z,19.02
2023-02-13T19:51:24.168Z,17.27
2023-02-13T19:53:59.398Z,14.75
2023-02-13T19:56:27.425Z,17.10
2023-02-13T19:58:54.383Z,18.92
2023-02-13T20:01:23.586Z,19.02
2023-02-13T20:03:50.603Z,15.63
2023-02-13T20:06:23.032Z,18.50
2023-02-13T20:08:49.915Z,15.73
2023-02-13T20:11:17.690Z,20.08
2023-02-13T20:13:44.152Z,16.45
2023-02-13T20:16:13.637Z,9.88
2023-02-13T20:18:41.340Z,10.65
2023-02-13T20:21:13.021Z,16.33
2023-02-13T20:23:40.389Z,16.80
2023-02-13T20:26:13.882Z,15.77
2023-02-13T20:28:41.754Z,19.77
2023-02-13T20:31:20.289Z,16.83
2023-02-13T20:33:48.327Z,15.47
2023-02-13T20:36:20.865Z,17.23
2023-02-13T20:38:48.225Z,15.65
2023-02-13T20:41:20.407Z,15.25
2023-02-13T20:43:47.170Z,17.77
2023-02-13T20:46:16.203Z,16.33
2023-02-13T20:48:44.976Z,20.05
2023-02-13T20:51:13.133Z,13.02
2023-02-13T20:53:40.716Z,15.73
2023-02-13T20:56:12.146Z,15.57
2023-02-13T20:58:39.703Z,17.47
2023-02-13T21:01:18.941Z,16.45
2023-02-13T21:03:49.916Z,14.77
2023-02-13T21:06:16.492Z,13.57
2023-02-13T21:08:43.824Z,16.35
2023-02-13T21:11:10.347Z,14.37
2023-02-13T21:13:37.009Z,14.85
2023-02-13T21:16:14.001Z,13.32
2023-02-13T21:18:41.759Z,14.25
2023-02-13T21:21:09.961Z,18.73
2023-02-13T21:23:37.400Z,16.77
2023-02-13T21:26:06.701Z,18.65
2023-02-13T21:28:33.494Z,14.95
2023-02-13T21:31:08.914Z,17.02
2023-02-13T21:33:35.885Z,16.45
2023-02-13T21:36:04.485Z,17.87
2023-02-13T21:38:30.999Z,18.70
2023-02-13T21:41:08.769Z,14.32
2023-02-13T21:43:37.703Z,17.08
2023-02-13T21:46:09.658Z,20.95
2023-02-13T21:48:37.536Z,21.77
2023-02-13T21:51:12.537Z,20.63
2023-02-13T21:53:39.744Z,22.75
2023-02-13T21:56:10.561Z,20.83
2023-02-13T21:58:39.176Z,21.73
2023-02-13T22:01:20.530Z,17.87
2023-02-13T22:03:52.124Z,17.33
2023-02-13T22:06:19.987Z,20.55
2023-02-13T22:08:46.716Z,17.30
2023-02-13T22:11:13.356Z,20.85
2023-02-13T22:13:39.835Z,19.80
2023-02-13T22:16:14.892Z,18.08
2023-02-13T22:18:43.700Z,18.63
2023-02-13T22:21:16.201Z,18.60
2023-02-13T22:23:44.534Z,21.08
2023-02-13T22:26:15.715Z,22.13
2023-02-13T22:28:42.684Z,18.48
2023-02-13T22:31:10.132Z,20.48
2023-02-13T22:33:36.753Z,20.38
2023-02-13T22:36:03.980Z,18.35
2023-02-13T22:38:35.616Z,21.60
2023-02-13T22:41:22.752Z,23.60
2023-02-13T22:43:49.692Z,19.50
2023-02-13T22:46:22.764Z,20.42
2023-02-13T22:48:53.868Z,21.83
2023-02-13T22:51:22.872Z,20.23
2023-02-13T22:53:51.925Z,22.05
2023-02-13T22:56:18.408Z,19.92
2023-02-13T22:58:44.874Z,21.08
2023-02-13T23:01:13.464Z,18.55
2023-02-13T23:03:40.455Z,21.23
2023-02-13T23:06:09.106Z,19.08
2023-02-13T23:08:36.426Z,19.98
2023-02-13T23:11:32.356Z,21.00
2023-02-13T23:13:59.188Z,20.13
2023-02-13T23:16:26.324Z,20.33
2023-02-13T23:18:57.310Z,25.60
2023-02-13T23:21:25.404Z,19.42
2023-02-13T23:23:52.146Z,21.42
2023-02-13T23:26:19.133Z,26.02
2023-02-13T23:28:45.730Z,19.70
2023-02-13T23:31:12.311Z,23.58
2023-02-13T23:33:38.796Z,22.48
2023-02-13T23:36:05.716Z,21.73
2023-02-13T23:38:32.212Z,24.88
2023-02-13T23:41:06.561Z,18.60
2023-02-13T23:43:33.044Z,19.52
2023-02-13T23:45:59.554Z,19.13
2023-02-13T23:48:26.055Z,16.58
2023-02-13T23:50:53.189Z,19.55
2023-02-13T23:53:19.645Z,20.70
2023-02-13T23:55:46.332Z,17.35
2023-02-13T23:58:12.803Z,20.10
